createdAt,value
2023-05-09T00:00:02.841Z,99.90
2023-05-09T00:02:30.844Z,99.90
2023-05-09T00:04:58.787Z,99.90
2023-05-09T00:07:26.642Z,99.90
2023-05-09T00:09:55.894Z,99.90
2023-05-09T00:12:23.929Z,99.90
2023-05-09T00:14:54.211Z,99.90
2023-05-09T00:17:22.652Z,99.90
2023-05-09T00:19:51.082Z,99.90
2023-05-09T00:22:21.441Z,99.90
2023-05-09T00:24:49.426Z,99.90
2023-05-09T00:27:18.741Z,99.90
2023-05-09T00:29:46.608Z,99.90
2023-05-09T00:32:14.726Z,99.90
2023-05-09T00:34:42.608Z,99.90
2023-05-09T00:37:10.421Z,99.90
2023-05-09T00:39:38.323Z,99.90
2023-05-09T00:42:06.342Z,99.90
2023-05-09T00:44:35.593Z,99.90
2023-05-09T00:47:03.540Z,99.90
2023-05-09T00:49:31.781Z,99.90
2023-05-09T00:51:59.863Z,99.90
2023-05-09T00:54:27.818Z,99.90
2023-05-09T00:56:55.780Z,99.90
2023-05-09T00:59:23.742Z,99.90
2023-05-09T01:01:53.308Z,99.90
2023-05-09T01:04:21.447Z,99.90
2023-05-09T01:06:57.129Z,99.90
2023-05-09T01:09:30.801Z,99.90
2023-05-09T01:12:08.854Z,99.90
2023-05-09T01:14:45.204Z,99.90
2023-05-09T01:17:27.120Z,99.90
2023-05-09T01:20:05.638Z,99.90
2023-05-09T01:22:37.327Z,99.90
2023-05-09T01:25:35.010Z,99.90
2023-05-09T01:28:12.523Z,99.90
2023-05-09T01:30:45.588Z,99.90
2023-05-09T01:33:17.346Z,99.90
2023-05-09T01:35:47.642Z,99.90
2023-05-09T01:38:20.682Z,99.90
2023-05-09T01:40:51.725Z,99.90
2023-05-09T01:43:21.235Z,99.90
2023-05-09T01:45:52.208Z,99.90
2023-05-09T01:48:21.050Z,99.90
2023-05-09T01:50:49.803Z,99.90
2023-05-09T01:53:18.773Z,99.90
2023-05-09T01:55:48.120Z,99.90
2023-05-09T01:58:16.865Z,99.90
2023-05-09T02:00:47.045Z,99.90
2023-05-09T02:03:16.526Z,99.90
2023-05-09T02:05:45.393Z,99.90
2023-05-09T02:08:16.856Z,99.90
2023-05-09T02:10:47.247Z,99.90
2023-05-09T02:13:15.213Z,99.90
2023-05-09T02:15:44.179Z,99.90
2023-05-09T02:18:12.863Z,99.90
2023-05-09T02:20:42.160Z,99.90
2023-05-09T02:23:10.277Z,99.90
2023-05-09T02:25:39.849Z,99.90
2023-05-09T02:28:10.005Z,99.90
2023-05-09T02:30:41.788Z,99.90
2023-05-09T02:33:12.771Z,99.90
2023-05-09T02:35:43.505Z,99.90
2023-05-09T02:38:12.331Z,99.90
2023-05-09T02:40:40.774Z,99.90
2023-05-09T02:43:08.808Z,99.90
2023-05-09T02:45:37.009Z,99.90
2023-05-09T02:48:08.373Z,99.90
2023-05-09T02:50:38.133Z,99.90
2023-05-09T02:53:07.380Z,99.90
2023-05-09T02:55:35.309Z,99.90
2023-05-09T02:58:13.426Z,99.90
2023-05-09T03:00:42.592Z,99.90
2023-05-09T03:03:11.263Z,99.90
2023-05-09T03:05:39.405Z,99.90
2023-05-09T03:08:08.982Z,99.90
2023-05-09T03:10:36.836Z,99.90
2023-05-09T03:13:05.040Z,99.90
2023-05-09T03:15:32.946Z,99.90
2023-05-09T03:18:00.900Z,99.90
2023-05-09T03:20:28.779Z,99.90
2023-05-09T03:22:56.683Z,99.90
2023-05-09T03:25:26.429Z,99.90
2023-05-09T03:27:54.406Z,99.90
2023-05-09T03:30:22.338Z,99.90
2023-05-09T03:32:50.272Z,99.90
2023-05-09T03:35:18.149Z,99.90
2023-05-09T03:37:46.035Z,99.90
2023-05-09T03:40:14.175Z,99.90
2023-05-09T03:42:43.390Z,99.90
2023-05-09T03:45:12.359Z,99.90
2023-05-09T03:47:40.526Z,99.90
2023-05-09T03:50:09.574Z,99.90
2023-05-09T03:52:38.253Z,99.90
2023-05-09T03:55:07.207Z,99.90
2023-05-09T03:57:36.198Z,99.90
2023-05-09T04:00:06.831Z,99.90
2023-05-09T04:02:35.056Z,99.90
2023-05-09T04:05:03.760Z,99.90
2023-05-09T04:07:31.671Z,99.90
2023-05-09T04:09:59.583Z,99.90
2023-05-09T04:12:27.423Z,99.90
2023-05-09T04:14:55.401Z,99.90
2023-05-09T04:17:24.578Z,99.90
2023-05-09T04:19:52.683Z,99.90
2023-05-09T04:22:20.714Z,99.90
2023-05-09T04:24:48.567Z,99.90
2023-05-09T04:27:16.424Z,99.90
2023-05-09T04:29:44.258Z,99.90
2023-05-09T04:32:12.199Z,99.90
2023-05-09T04:34:41.457Z,99.90
2023-05-09T04:37:09.313Z,99.90
2023-05-09T04:39:37.322Z,99.90
2023-05-09T04:42:05.589Z,99.90
2023-05-09T04:44:34.073Z,99.90
2023-05-09T04:47:01.972Z,99.90
2023-05-09T04:49:29.794Z,99.90
2023-05-09T04:51:59.044Z,99.90
2023-05-09T04:54:26.835Z,99.90
2023-05-09T04:57:03.196Z,99.90
2023-05-09T04:59:38.110Z,99.90
2023-05-09T05:02:06.133Z,99.90
2023-05-09T05:04:34.071Z,99.90
2023-05-09T05:07:03.405Z,99.90
2023-05-09T05:09:31.238Z,99.90
2023-05-09T05:12:02.364Z,99.90
2023-05-09T05:14:31.644Z,99.90
2023-05-09T05:17:00.136Z,99.90
2023-05-09T05:19:28.024Z,99.90
2023-05-09T05:21:55.841Z,99.90
2023-05-09T05:24:25.085Z,99.90
2023-05-09T05:26:52.903Z,99.90
2023-05-09T05:29:21.334Z,99.90
2023-05-09T05:31:49.319Z,99.90
2023-05-09T05:34:17.597Z,99.90
2023-05-09T05:36:45.707Z,99.90
2023-05-09T05:39:13.655Z,99.90
2023-05-09T05:41:42.857Z,99.90
2023-05-09T05:44:10.721Z,99.90
2023-05-09T05:46:38.588Z,99.90
2023-05-09T05:49:06.532Z,99.90
2023-05-09T05:51:34.472Z,99.90
2023-05-09T05:54:02.392Z,99.90
2023-05-09T05:56:30.749Z,99.90
2023-05-09T05:58:59.987Z,99.90
2023-05-09T06:01:27.843Z,99.90
2023-05-09T06:03:56.035Z,99.90
2023-05-09T06:06:24.348Z,99.90
2023-05-09T06:08:52.272Z,99.90
2023-05-09T06:11:21.125Z,99.90
2023-05-09T06:13:49.070Z,99.90
2023-05-09T06:16:20.330Z,99.90
2023-05-09T06:18:48.614Z,99.90
2023-05-09T06:21:16.441Z,99.90
2023-05-09T06:24:01.413Z,99.90
2023-05-09T06:26:32.294Z,99.50
2023-05-09T06:29:00.216Z,99.90
2023-05-09T06:31:29.634Z,99.90
2023-05-09T06:33:57.545Z,99.30
2023-05-09T06:36:25.533Z,97.10
2023-05-09T06:38:53.444Z,97.90
2023-05-09T06:41:21.452Z,98.60
2023-05-09T06:43:50.011Z,94.20
2023-05-09T06:46:18.037Z,94.10
2023-05-09T06:48:47.288Z,94.00
2023-05-09T06:51:15.139Z,94.30
2023-05-09T06:53:42.943Z,95.00
2023-05-09T06:56:10.848Z,91.90
2023-05-09T06:58:38.830Z,92.30
2023-05-09T07:01:07.075Z,92.60
2023-05-09T07:03:35.056Z,93.50
2023-05-09T07:06:04.870Z,93.20
2023-05-09T07:08:32.933Z,93.20
2023-05-09T07:11:00.786Z,93.40
2023-05-09T07:13:28.666Z,92.40
2023-05-09T07:15:57.014Z,92.40
2023-05-09T07:18:25.049Z,91.10
2023-05-09T07:20:52.944Z,89.40
2023-05-09T07:23:22.230Z,88.80
2023-05-09T07:25:50.128Z,90.10
2023-05-09T07:28:19.103Z,88.60
2023-05-09T07:30:46.939Z,90.10
2023-05-09T07:33:14.828Z,88.30
2023-05-09T07:35:42.653Z,89.80
2023-05-09T07:38:11.057Z,85.80
2023-05-09T07:40:41.132Z,84.00
2023-05-09T07:43:09.004Z,82.30
2023-05-09T07:45:37.010Z,86.20
2023-05-09T07:48:05.366Z,83.60
2023-05-09T07:50:33.225Z,86.50
2023-05-09T07:53:01.201Z,78.60
2023-05-09T07:55:29.078Z,77.70
2023-05-09T07:57:58.283Z,81.30
2023-05-09T08:00:26.416Z,79.70
2023-05-09T08:02:54.495Z,79.80
2023-05-09T08:05:22.499Z,74.10
2023-05-09T08:07:50.379Z,74.20
2023-05-09T08:10:18.350Z,77.50
2023-05-09T08:12:46.236Z,71.60
2023-05-09T08:15:15.700Z,72.60
2023-05-09T08:17:43.884Z,73.40
2023-05-09T08:20:13.222Z,73.90
2023-05-09T08:22:41.190Z,78.50
2023-05-09T08:25:13.929Z,78.80
2023-05-09T08:27:42.004Z,82.20
2023-05-09T08:30:19.350Z,83.80
2023-05-09T08:32:48.689Z,84.60
2023-05-09T08:35:17.030Z,85.20
2023-05-09T08:37:47.794Z,87.50
2023-05-09T08:40:16.445Z,82.40
2023-05-09T08:42:46.790Z,79.80
2023-05-09T08:45:16.204Z,84.40
2023-05-09T08:47:45.544Z,75.60
2023-05-09T08:50:17.410Z,84.90
2023-05-09T08:52:45.786Z,78.70
2023-05-09T08:55:15.205Z,82.10
2023-05-09T08:57:43.235Z,75.70
2023-05-09T09:00:16.576Z,76.70
2023-05-09T09:02:47.361Z,78.60
2023-05-09T09:05:39.395Z,71.60
2023-05-09T09:08:06.341Z,73.20
2023-05-09T09:10:35.513Z,70.10
2023-05-09T09:13:06.193Z,71.60
2023-05-09T09:15:37.210Z,67.10
2023-05-09T09:18:09.998Z,70.30
2023-05-09T09:20:44.716Z,68.90
2023-05-09T09:23:13.556Z,69.20
2023-05-09T09:25:41.408Z,61.90
2023-05-09T09:28:09.253Z,63.00
2023-05-09T09:30:44.190Z,67.30
2023-05-09T09:33:19.551Z,68.60
2023-05-09T09:35:49.395Z,66.20
2023-05-09T09:38:18.342Z,66.10
2023-05-09T09:40:56.567Z,65.80
2023-05-09T09:43:31.265Z,66.40
2023-05-09T09:46:02.484Z,63.30
2023-05-09T09:48:39.426Z,63.80
2023-05-09T09:51:11.764Z,58.80
2023-05-09T09:53:43.184Z,64.50
2023-05-09T09:56:11.154Z,59.20
2023-05-09T09:58:39.190Z,59.50
2023-05-09T10:01:08.107Z,57.90
2023-05-09T10:03:40.154Z,58.70
2023-05-09T10:06:13.049Z,56.20
2023-05-09T10:08:41.259Z,54.00
2023-05-09T10:11:10.899Z,57.50
2023-05-09T10:13:39.294Z,53.60
2023-05-09T10:16:09.824Z,53.90
2023-05-09T10:18:38.756Z,56.50
2023-05-09T10:21:09.211Z,56.90
2023-05-09T10:23:43.548Z,55.90
2023-05-09T10:26:17.990Z,55.70
2023-05-09T10:28:48.797Z,56.70
2023-05-09T10:31:21.764Z,53.40
2023-05-09T10:33:51.216Z,55.10
2023-05-09T10:36:20.734Z,54.50
2023-05-09T10:38:50.297Z,53.70
2023-05-09T10:41:19.714Z,55.70
2023-05-09T10:43:47.739Z,52.70
2023-05-09T10:46:16.333Z,53.70
2023-05-09T10:48:45.045Z,54.50
2023-05-09T10:51:14.073Z,53.00
2023-05-09T10:53:44.157Z,52.90
2023-05-09T10:56:26.337Z,53.40
2023-05-09T10:58:54.481Z,59.20
2023-05-09T11:01:35.057Z,57.50
2023-05-09T11:04:09.487Z,54.60
2023-05-09T11:06:50.932Z,58.40
2023-05-09T11:09:31.498Z,57.30
2023-05-09T11:12:08.120Z,50.50
2023-05-09T11:14:41.807Z,52.70
2023-05-09T11:17:11.532Z,49.00
2023-05-09T11:19:59.139Z,52.00
2023-05-09T11:22:28.575Z,47.70
2023-05-09T11:25:04.580Z,49.40
2023-05-09T11:27:40.574Z,48.50
2023-05-09T11:30:10.032Z,47.10
2023-05-09T11:32:46.480Z,48.20
2023-05-09T11:35:16.608Z,48.00
2023-05-09T11:37:50.494Z,48.20
2023-05-09T11:40:20.333Z,48.00
2023-05-09T11:42:54.729Z,46.10
2023-05-09T11:45:25.446Z,46.80
2023-05-09T11:47:54.056Z,45.80
2023-05-09T11:50:22.304Z,43.70
2023-05-09T11:52:51.058Z,43.00
2023-05-09T11:55:22.187Z,45.20
2023-05-09T11:57:53.456Z,45.30
2023-05-09T12:00:23.122Z,45.90
2023-05-09T12:02:51.842Z,45.10
2023-05-09T12:05:21.028Z,46.70
2023-05-09T12:07:49.663Z,43.80
2023-05-09T12:10:20.942Z,45.70
2023-05-09T12:12:51.975Z,46.30
2023-05-09T12:15:21.533Z,47.40
2023-05-09T12:18:02.690Z,51.20
2023-05-09T12:20:41.619Z,51.70
2023-05-09T12:23:11.483Z,50.40
2023-05-09T12:25:39.440Z,51.90
2023-05-09T12:28:09.070Z,49.40
2023-05-09T12:30:37.167Z,49.90
2023-05-09T12:33:05.418Z,46.30
2023-05-09T12:35:35.364Z,48.00
2023-05-09T12:38:03.685Z,51.40
2023-05-09T12:40:31.848Z,51.30
2023-05-09T12:43:02.577Z,49.50
2023-05-09T12:45:33.602Z,48.90
2023-05-09T12:48:02.541Z,49.10
2023-05-09T12:50:35.834Z,50.70
2023-05-09T12:53:05.130Z,46.80
2023-05-09T12:55:39.806Z,48.90
2023-05-09T12:58:07.841Z,49.20
2023-05-09T13:00:46.528Z,52.80
2023-05-09T13:03:30.534Z,47.00
2023-05-09T13:05:59.753Z,48.40
2023-05-09T13:08:28.076Z,47.60
2023-05-09T13:11:08.008Z,47.40
2023-05-09T13:13:43.393Z,44.80
2023-05-09T13:16:14.884Z,50.00
2023-05-09T13:18:44.653Z,46.40
2023-05-09T13:21:12.497Z,42.90
2023-05-09T13:23:42.065Z,45.50
2023-05-09T13:26:10.014Z,43.30
2023-05-09T13:28:37.935Z,45.60
2023-05-09T13:31:06.743Z,47.20
2023-05-09T13:33:36.213Z,46.70
2023-05-09T13:36:04.230Z,48.70
2023-05-09T13:38:35.391Z,46.20
2023-05-09T13:41:03.371Z,43.80
2023-05-09T13:43:31.465Z,47.80
2023-05-09T13:45:59.465Z,48.50
2023-05-09T13:48:27.392Z,51.40
2023-05-09T13:50:57.725Z,53.00
2023-05-09T13:53:31.484Z,55.10
2023-05-09T13:55:59.370Z,55.60
2023-05-09T13:58:27.336Z,56.90
2023-05-09T14:00:55.266Z,55.60
2023-05-09T14:03:23.175Z,52.60
2023-05-09T14:05:51.899Z,52.80
2023-05-09T14:08:21.453Z,54.40
2023-05-09T14:10:49.377Z,53.70
2023-05-09T14:13:17.349Z,54.10
2023-05-09T14:15:45.323Z,54.50
2023-05-09T14:18:16.552Z,51.40
2023-05-09T14:20:45.787Z,50.70
2023-05-09T14:23:13.691Z,50.60
2023-05-09T14:25:43.104Z,54.40
2023-05-09T14:28:11.010Z,52.30
2023-05-09T14:30:38.894Z,56.30
2023-05-09T14:33:07.042Z,55.10
2023-05-09T14:35:35.147Z,56.00
2023-05-09T14:38:03.488Z,54.40
2023-05-09T14:40:32.049Z,56.40
2023-05-09T14:43:02.550Z,54.30
2023-05-09T14:45:31.353Z,56.10
2023-05-09T14:47:59.546Z,56.60
2023-05-09T14:50:27.478Z,55.90
2023-05-09T14:52:55.472Z,57.40
2023-05-09T14:55:23.995Z,57.70
2023-05-09T14:57:51.945Z,59.10
2023-05-09T15:00:22.617Z,60.30
2023-05-09T15:02:50.980Z,64.20
2023-05-09T15:05:19.023Z,64.50
2023-05-09T15:07:47.355Z,67.80
2023-05-09T15:10:15.521Z,69.40
2023-05-09T15:12:44.042Z,70.20
2023-05-09T15:15:18.123Z,69.30
2023-05-09T15:17:47.995Z,69.70
2023-05-09T15:20:17.491Z,73.20
2023-05-09T15:22:46.013Z,74.40
2023-05-09T15:25:13.972Z,72.20
2023-05-09T15:27:41.890Z,70.00
2023-05-09T15:30:11.060Z,63.70
2023-05-09T15:32:42.084Z,66.00
2023-05-09T15:35:11.611Z,70.80
2023-05-09T15:37:39.518Z,72.20
2023-05-09T15:40:09.228Z,74.20
2023-05-09T15:42:37.498Z,62.50
2023-05-09T15:45:06.510Z,70.40
2023-05-09T15:47:34.546Z,63.70
2023-05-09T15:50:02.728Z,68.30
2023-05-09T15:52:32.132Z,64.70
2023-05-09T15:55:00.857Z,60.80
2023-05-09T15:57:28.890Z,57.90
2023-05-09T15:59:56.852Z,61.90
2023-05-09T16:02:24.955Z,62.70
2023-05-09T16:04:52.939Z,66.00
2023-05-09T16:07:20.975Z,67.50
2023-05-09T16:09:50.271Z,67.20
2023-05-09T16:12:18.136Z,72.30
2023-05-09T16:14:46.020Z,73.30
2023-05-09T16:17:13.959Z,69.00
2023-05-09T16:19:42.460Z,70.00
2023-05-09T16:22:10.373Z,71.00
2023-05-09T16:24:38.505Z,72.30
2023-05-09T16:27:07.742Z,74.40
2023-05-09T16:29:35.716Z,77.80
2023-05-09T16:32:04.430Z,80.70
2023-05-09T16:34:32.814Z,83.70
2023-05-09T16:37:00.788Z,84.60
2023-05-09T16:39:28.876Z,86.10
2023-05-09T16:41:56.769Z,90.10
2023-05-09T16:44:26.431Z,94.60
2023-05-09T16:46:54.362Z,95.70
2023-05-09T16:49:22.373Z,99.90
2023-05-09T16:51:50.349Z,99.90
2023-05-09T16:54:18.348Z,99.90
2023-05-09T16:56:46.272Z,99.90
2023-05-09T16:59:14.530Z,99.90
2023-05-09T17:01:43.847Z,99.90
2023-05-09T17:04:11.790Z,99.90
2023-05-09T17:06:40.048Z,99.90
2023-05-09T17:09:08.049Z,99.90
2023-05-09T17:11:36.032Z,99.90
2023-05-09T17:14:04.346Z,99.90
2023-05-09T17:16:32.421Z,99.90
2023-05-09T17:19:01.832Z,99.90
2023-05-09T17:21:29.943Z,99.90
2023-05-09T17:23:57.878Z,99.90
2023-05-09T17:26:25.943Z,99.90
2023-05-09T17:28:54.009Z,99.90
2023-05-09T17:31:22.089Z,99.90
2023-05-09T17:33:50.004Z,99.90
2023-05-09T17:36:19.262Z,99.90
2023-05-09T17:38:47.207Z,99.90
2023-05-09T17:41:15.172Z,99.90
2023-05-09T17:43:43.073Z,99.90
2023-05-09T17:46:11.047Z,99.90
2023-05-09T17:48:38.991Z,99.90
2023-05-09T17:51:07.068Z,99.90
2023-05-09T17:53:36.437Z,99.90
2023-05-09T17:56:04.567Z,99.90
2023-05-09T17:58:32.881Z,99.90
2023-05-09T18:01:00.929Z,99.90
2023-05-09T18:03:29.564Z,99.90
2023-05-09T18:05:57.654Z,99.90
2023-05-09T18:08:25.519Z,99.90
2023-05-09T18:10:55.379Z,99.90
2023-05-09T18:13:23.448Z,99.90
2023-05-09T18:15:51.466Z,99.90
2023-05-09T18:18:19.406Z,99.90
2023-05-09T18:20:47.403Z,99.90
2023-05-09T18:23:15.933Z,99.90
2023-05-09T18:25:43.966Z,99.90
2023-05-09T18:28:13.217Z,99.90
2023-05-09T18:30:41.254Z,99.90
2023-05-09T18:33:09.469Z,99.90
2023-05-09T18:35:37.411Z,99.90
2023-05-09T18:38:05.499Z,99.90
2023-05-09T18:40:33.350Z,99.90
2023-05-09T18:43:01.252Z,99.90
2023-05-09T18:45:30.749Z,99.90
2023-05-09T18:47:58.697Z,99.90
2023-05-09T18:50:27.091Z,99.90
2023-05-09T18:52:55.210Z,99.90
2023-05-09T18:55:23.480Z,99.90
2023-05-09T18:57:51.513Z,99.90
2023-05-09T19:00:19.446Z,99.90
2023-05-09T19:02:48.815Z,99.90
2023-05-09T19:05:16.840Z,99.90
2023-05-09T19:07:44.934Z,99.90
2023-05-09T19:10:13.319Z,99.90
2023-05-09T19:12:41.636Z,99.90
2023-05-09T19:15:11.191Z,99.90
2023-05-09T19:17:39.191Z,99.90
2023-05-09T19:20:10.105Z,99.90
2023-05-09T19:22:41.144Z,99.90
2023-05-09T19:25:10.095Z,99.90
2023-05-09T19:27:37.990Z,99.90
2023-05-09T19:30:07.439Z,99.90
2023-05-09T19:32:35.419Z,99.90
2023-05-09T19:35:03.785Z,99.90
2023-05-09T19:37:33.202Z,99.90
2023-05-09T19:40:01.259Z,99.90
2023-05-09T19:42:29.237Z,99.90
2023-05-09T19:44:57.147Z,99.90
2023-05-09T19:47:25.055Z,99.90
2023-05-09T19:49:53.483Z,99.90
2023-05-09T19:52:21.576Z,99.90
2023-05-09T19:54:51.212Z,99.90
2023-05-09T19:57:20.499Z,99.90
2023-05-09T19:59:48.350Z,99.90
2023-05-09T20:02:16.299Z,99.90
2023-05-09T20:04:49.515Z,99.90
2023-05-09T20:07:17.831Z,99.90
2023-05-09T20:09:45.812Z,99.90
2023-05-09T20:12:15.085Z,99.90
2023-05-09T20:14:44.199Z,99.90
2023-05-09T20:17:12.288Z,99.90
2023-05-09T20:19:40.256Z,99.90
2023-05-09T20:22:08.813Z,99.90
2023-05-09T20:24:36.774Z,99.90
2023-05-09T20:27:04.852Z,99.90
2023-05-09T20:29:34.089Z,99.90
2023-05-09T20:32:02.202Z,99.90
2023-05-09T20:34:30.288Z,99.90
2023-05-09T20:36:58.232Z,99.90
2023-05-09T20:39:26.869Z,99.90
2023-05-09T20:41:55.740Z,99.90
2023-05-09T20:44:23.948Z,99.90
2023-05-09T20:46:53.203Z,99.90
2023-05-09T20:49:21.096Z,99.90
2023-05-09T20:51:49.022Z,99.90
2023-05-09T20:54:18.180Z,99.90
2023-05-09T20:56:46.366Z,99.90
2023-05-09T20:59:14.329Z,99.90
2023-05-09T21:01:42.388Z,99.90
2023-05-09T21:04:11.628Z,99.90
2023-05-09T21:06:39.746Z,99.90
2023-05-09T21:09:08.880Z,99.90
2023-05-09T21:11:38.345Z,99.90
2023-05-09T21:14:06.249Z,99.90
2023-05-09T21:16:34.146Z,99.90
2023-05-09T21:19:04.833Z,99.90
2023-05-09T21:21:34.224Z,99.90
2023-05-09T21:24:04.169Z,99.90
2023-05-09T21:26:33.358Z,99.90
2023-05-09T21:29:01.202Z,99.90
2023-05-09T21:31:29.233Z,99.90
2023-05-09T21:33:59.690Z,99.90
2023-05-09T21:36:28.039Z,99.90
2023-05-09T21:38:57.452Z,99.90
2023-05-09T21:41:25.613Z,99.90
2023-05-09T21:43:54.423Z,99.90
2023-05-09T21:46:22.463Z,99.90
2023-05-09T21:48:50.426Z,99.90
2023-05-09T21:51:18.296Z,99.90
2023-05-09T21:53:46.435Z,99.90
2023-05-09T21:56:15.685Z,99.90
2023-05-09T21:58:43.595Z,99.90
2023-05-09T22:01:12.539Z,99.90
2023-05-09T22:03:40.534Z,99.90
2023-05-09T22:06:08.740Z,99.90
2023-05-09T22:08:36.609Z,99.90
2023-05-09T22:11:04.820Z,99.90
2023-05-09T22:13:35.795Z,99.90
2023-05-09T22:16:04.709Z,99.90
2023-05-09T22:18:33.305Z,99.90
2023-05-09T22:21:01.277Z,99.90
2023-05-09T22:23:29.246Z,99.90
2023-05-09T22:25:57.083Z,99.90
2023-05-09T22:28:25.025Z,99.90
2023-05-09T22:30:54.286Z,99.90
2023-05-09T22:33:22.136Z,99.90
2023-05-09T22:35:50.009Z,99.90
2023-05-09T22:38:17.863Z,99.90
2023-05-09T22:40:45.732Z,99.90
2023-05-09T22:43:13.617Z,99.90
2023-05-09T22:45:41.557Z,99.90
2023-05-09T22:48:11.179Z,99.90
2023-05-09T22:50:39.055Z,99.90
2023-05-09T22:53:07.461Z,99.90
2023-05-09T22:55:36.487Z,99.90
2023-05-09T22:58:04.715Z,99.90
2023-05-09T23:00:32.738Z,99.90
2023-05-09T23:03:00.824Z,99.90
2023-05-09T23:05:30.104Z,99.90
2023-05-09T23:07:58.286Z,99.90
2023-05-09T23:10:26.298Z,99.90
2023-05-09T23:12:54.174Z,99.90
2023-05-09T23:15:22.184Z,99.90
2023-05-09T23:17:50.152Z,99.90
2023-05-09T23:20:18.476Z,99.90
2023-05-09T23:22:47.989Z,99.90
2023-05-09T23:25:15.880Z,99.90
2023-05-09T23:27:44.637Z,99.90
2023-05-09T23:30:12.738Z,99.90
2023-05-09T23:32:40.834Z,99.90
2023-05-09T23:35:09.166Z,99.90
2023-05-09T23:37:37.037Z,99.90
2023-05-09T23:40:07.166Z,99.90
2023-05-09T23:42:35.116Z,99.90
2023-05-09T23:45:03.096Z,99.90
2023-05-09T23:47:30.960Z,99.90
2023-05-09T23:49:58.812Z,99.90
2023-05-09T23:52:26.704Z,99.90
2023-05-09T23:54:54.595Z,99.90
2023-05-09T23:57:23.827Z,99.90
2023-05-09T23:59:51.667Z,99.90
